createdAt,value
2022-12-31T00:00:08.739Z,0.80
2022-12-31T00:02:36.245Z,0.80
2022-12-31T00:05:03.241Z,1.23
2022-12-31T00:07:29.876Z,0.67
2022-12-31T00:09:56.628Z,0.67
2022-12-31T00:12:23.398Z,0.70
2022-12-31T00:14:50.068Z,0.63
2022-12-31T00:17:16.776Z,0.70
2022-12-31T00:19:43.451Z,0.70
2022-12-31T00:22:10.292Z,0.70
2022-12-31T00:24:36.896Z,0.73
2022-12-31T00:27:03.645Z,0.60
2022-12-31T00:29:30.327Z,0.60
2022-12-31T00:31:57.071Z,0.80
2022-12-31T00:34:23.853Z,0.70
2022-12-31T00:36:50.533Z,0.60
2022-12-31T00:39:17.271Z,0.60
2022-12-31T00:41:44.151Z,0.60
2022-12-31T00:44:12.411Z,0.60
2022-12-31T00:49:05.711Z,0.70
2022-12-31T00:51:32.451Z,0.73
2022-12-31T00:53:59.594Z,0.50
2022-12-31T00:56:29.231Z,0.70
2022-12-31T00:58:56.451Z,0.60
2022-12-31T01:01:38.240Z,0.63
2022-12-31T01:04:08.765Z,0.60
2022-12-31T01:06:35.864Z,0.60
2022-12-31T01:09:03.349Z,0.60
2022-12-31T01:11:30.555Z,0.70
2022-12-31T01:14:13.730Z,0.70
2022-12-31T01:16:47.574Z,0.60
2022-12-31T01:19:20.898Z,0.53
2022-12-31T01:21:48.533Z,0.70
2022-12-31T01:24:15.681Z,0.90
2022-12-31T01:26:42.756Z,0.80
2022-12-31T01:29:10.242Z,0.70
2022-12-31T01:31:38.267Z,0.60
2022-12-31T01:34:06.139Z,0.70
2022-12-31T01:36:34.436Z,0.80
2022-12-31T01:39:02.783Z,0.67
2022-12-31T01:41:33.119Z,0.70
2022-12-31T01:44:25.674Z,0.93
2022-12-31T01:46:56.231Z,0.80
2022-12-31T01:49:44.068Z,0.90
2022-12-31T01:52:36.256Z,0.63
2022-12-31T01:55:11.956Z,1.00
2022-12-31T01:57:38.896Z,0.70
2022-12-31T02:00:07.391Z,0.90
2022-12-31T02:02:34.301Z,0.87
2022-12-31T02:05:05.698Z,0.90
2022-12-31T02:07:32.460Z,0.70
2022-12-31T02:09:59.553Z,0.67
2022-12-31T02:12:26.240Z,0.70
2022-12-31T02:14:54.606Z,0.70
2022-12-31T02:17:45.647Z,0.90
2022-12-31T02:20:36.651Z,0.70
2022-12-31T02:23:35.110Z,0.80
2022-12-31T02:26:39.598Z,0.87
2022-12-31T02:29:30.733Z,0.80
2022-12-31T02:32:07.774Z,0.70
2022-12-31T02:34:39.991Z,0.70
2022-12-31T02:37:11.910Z,0.60
2022-12-31T02:39:40.691Z,0.70
2022-12-31T02:42:07.428Z,1.00
2022-12-31T02:44:38.470Z,0.70
2022-12-31T02:47:32.239Z,0.77
2022-12-31T02:50:11.009Z,0.90
2022-12-31T02:53:19.766Z,0.80
2022-12-31T02:55:58.561Z,0.70
2022-12-31T02:59:01.025Z,0.87
2022-12-31T03:01:55.255Z,0.80
2022-12-31T03:04:33.093Z,0.70
2022-12-31T03:07:08.623Z,0.70
2022-12-31T03:09:36.577Z,0.90
2022-12-31T03:12:24.575Z,0.70
2022-12-31T03:14:52.037Z,0.80
2022-12-31T03:17:18.747Z,0.60
2022-12-31T03:20:03.910Z,0.77
2022-12-31T03:22:30.911Z,0.60
2022-12-31T03:25:26.435Z,0.70
2022-12-31T03:27:54.054Z,0.90
2022-12-31T03:30:22.340Z,0.77
2022-12-31T03:32:50.767Z,0.80
2022-12-31T03:35:21.871Z,1.00
2022-12-31T03:37:49.530Z,0.60
2022-12-31T03:40:17.664Z,0.70
2022-12-31T03:42:44.400Z,0.60
2022-12-31T03:45:12.777Z,0.83
2022-12-31T03:47:39.991Z,0.70
2022-12-31T03:50:08.942Z,0.60
2022-12-31T03:52:36.113Z,0.87
2022-12-31T03:55:02.984Z,0.60
2022-12-31T03:57:29.808Z,0.83
2022-12-31T03:59:56.523Z,0.80
2022-12-31T04:02:28.530Z,0.70
2022-12-31T04:04:56.311Z,0.70
2022-12-31T04:07:23.165Z,0.83
2022-12-31T04:09:50.054Z,0.70
2022-12-31T04:12:16.773Z,0.90
2022-12-31T04:14:43.466Z,0.80
2022-12-31T04:17:10.121Z,0.80
2022-12-31T04:19:37.637Z,0.70
2022-12-31T04:22:05.474Z,0.70
2022-12-31T04:24:32.304Z,0.80
2022-12-31T04:27:05.375Z,1.00
2022-12-31T04:29:34.513Z,0.70
2022-12-31T04:32:01.407Z,0.80
2022-12-31T04:34:28.152Z,0.70
2022-12-31T04:36:54.938Z,0.80
2022-12-31T04:39:21.670Z,0.80
2022-12-31T04:41:48.358Z,0.60
2022-12-31T04:44:15.073Z,0.63
2022-12-31T04:46:41.949Z,1.00
2022-12-31T04:49:09.053Z,0.80
2022-12-31T04:51:36.400Z,0.80
2022-12-31T04:54:03.709Z,1.07
2022-12-31T04:56:30.738Z,0.70
2022-12-31T04:58:57.638Z,0.80
2022-12-31T05:01:24.904Z,0.80
2022-12-31T05:03:51.806Z,0.70
2022-12-31T05:06:23.384Z,0.73
2022-12-31T05:08:50.402Z,0.80
2022-12-31T05:11:17.126Z,0.70
2022-12-31T05:13:44.278Z,0.70
2022-12-31T05:16:11.216Z,0.60
2022-12-31T05:18:37.950Z,0.97
2022-12-31T05:21:04.799Z,0.70
2022-12-31T05:23:31.611Z,0.70
2022-12-31T05:25:59.531Z,0.80
2022-12-31T05:28:26.566Z,0.90
2022-12-31T05:30:53.344Z,0.73
2022-12-31T05:33:20.611Z,0.60
2022-12-31T05:35:47.425Z,0.87
2022-12-31T05:38:14.088Z,0.60
2022-12-31T05:40:40.727Z,0.80
2022-12-31T05:43:07.418Z,0.70
2022-12-31T05:45:34.076Z,0.70
2022-12-31T05:48:00.690Z,0.70
2022-12-31T05:50:27.359Z,0.80
2022-12-31T05:52:54.148Z,0.87
2022-12-31T05:55:20.865Z,0.70
2022-12-31T05:57:47.519Z,0.80
2022-12-31T06:00:15.040Z,0.60
2022-12-31T06:02:41.737Z,0.60
2022-12-31T06:05:08.966Z,0.70
2022-12-31T06:07:35.608Z,0.80
2022-12-31T06:10:02.267Z,0.60
2022-12-31T06:12:28.933Z,0.60
2022-12-31T06:14:55.594Z,0.63
2022-12-31T06:17:22.555Z,0.60
2022-12-31T06:19:49.294Z,0.60
2022-12-31T06:22:16.059Z,0.77
2022-12-31T06:24:42.717Z,0.60
2022-12-31T06:27:09.570Z,0.67
2022-12-31T06:29:36.263Z,0.80
2022-12-31T06:32:03.173Z,0.77
2022-12-31T06:34:29.930Z,0.60
2022-12-31T06:36:56.597Z,0.80
2022-12-31T06:39:23.468Z,0.70
2022-12-31T06:41:50.077Z,0.70
2022-12-31T06:44:16.829Z,0.60
2022-12-31T06:46:43.503Z,0.60
2022-12-31T06:49:10.309Z,0.80
2022-12-31T06:51:36.958Z,0.90
2022-12-31T06:54:03.761Z,0.70
2022-12-31T06:56:34.311Z,1.00
2022-12-31T06:59:02.095Z,0.87
2022-12-31T07:01:37.813Z,0.70
2022-12-31T07:04:16.898Z,0.83
2022-12-31T07:06:48.612Z,1.00
2022-12-31T07:09:40.028Z,0.60
2022-12-31T07:12:27.135Z,1.00
2022-12-31T07:15:10.542Z,0.90
2022-12-31T07:18:04.954Z,0.73
2022-12-31T07:20:31.958Z,0.77
2022-12-31T07:22:59.066Z,1.00
2022-12-31T07:25:26.075Z,0.80
2022-12-31T07:27:58.691Z,0.93
2022-12-31T07:30:48.650Z,0.80
2022-12-31T07:33:30.096Z,1.00
2022-12-31T07:36:34.252Z,0.93
2022-12-31T07:39:12.646Z,0.80
2022-12-31T07:41:56.476Z,0.90
2022-12-31T07:44:45.588Z,0.73
2022-12-31T07:47:24.343Z,0.70
2022-12-31T07:49:51.896Z,1.10
2022-12-31T07:52:19.285Z,0.90
2022-12-31T07:54:45.976Z,0.90
2022-12-31T07:57:14.394Z,0.97
2022-12-31T08:00:07.170Z,1.00
2022-12-31T08:03:10.901Z,1.00
2022-12-31T08:06:05.400Z,0.90
2022-12-31T08:08:52.433Z,0.80
2022-12-31T08:11:32.603Z,1.00
2022-12-31T08:14:02.256Z,0.80
2022-12-31T08:16:29.924Z,1.00
2022-12-31T08:18:56.872Z,1.10
2022-12-31T08:21:46.344Z,1.10
2022-12-31T08:24:54.723Z,1.13
2022-12-31T08:27:51.120Z,1.17
2022-12-31T08:30:20.956Z,0.80
2022-12-31T08:32:53.304Z,0.90
2022-12-31T08:35:25.960Z,1.10
2022-12-31T08:38:20.465Z,1.00
2022-12-31T08:41:01.310Z,0.80
2022-12-31T08:43:49.527Z,1.20
2022-12-31T08:46:25.978Z,0.90
2022-12-31T08:48:52.743Z,1.13
2022-12-31T08:51:22.367Z,0.87
2022-12-31T08:53:49.703Z,1.10
2022-12-31T08:56:23.995Z,0.97
2022-12-31T08:59:28.406Z,1.20
2022-12-31T09:02:08.537Z,1.30
2022-12-31T09:05:12.124Z,1.10
2022-12-31T09:07:58.175Z,0.93
2022-12-31T09:10:34.865Z,0.93
2022-12-31T09:13:32.171Z,1.20
2022-12-31T09:16:20.325Z,0.70
2022-12-31T09:18:47.802Z,1.17
2022-12-31T09:21:16.263Z,1.00
2022-12-31T09:23:43.548Z,1.23
2022-12-31T09:26:40.546Z,1.10
2022-12-31T09:29:37.511Z,0.90
2022-12-31T09:32:34.992Z,1.10
2022-12-31T09:35:11.206Z,1.07
2022-12-31T09:37:48.434Z,1.10
2022-12-31T09:40:34.074Z,1.20
2022-12-31T09:43:38.404Z,1.10
2022-12-31T09:46:32.513Z,1.00
2022-12-31T09:49:34.573Z,0.70
2022-12-31T09:52:15.711Z,1.00
2022-12-31T09:55:20.955Z,1.30
2022-12-31T09:58:11.577Z,1.07
2022-12-31T10:00:59.079Z,0.90
2022-12-31T10:03:43.632Z,1.10
2022-12-31T10:06:47.440Z,1.33
2022-12-31T10:09:39.450Z,1.20
2022-12-31T10:12:52.339Z,1.10
2022-12-31T10:15:49.862Z,1.27
2022-12-31T10:18:51.551Z,1.20
2022-12-31T10:21:48.857Z,1.23
2022-12-31T10:24:18.375Z,1.17
2022-12-31T10:26:53.009Z,1.00
2022-12-31T10:29:22.967Z,1.00
2022-12-31T10:32:18.253Z,1.00
2022-12-31T10:34:55.486Z,1.27
2022-12-31T10:37:28.955Z,1.00
2022-12-31T10:40:13.695Z,0.90
2022-12-31T10:43:08.394Z,1.00
2022-12-31T10:45:50.488Z,1.20
2022-12-31T10:48:32.180Z,0.90
2022-12-31T10:51:40.277Z,0.93
2022-12-31T10:54:33.877Z,1.10
2022-12-31T10:57:22.557Z,1.30
2022-12-31T11:00:03.515Z,1.13
2022-12-31T11:03:07.568Z,0.90
2022-12-31T11:06:16.374Z,1.17
2022-12-31T11:09:07.483Z,1.10
2022-12-31T11:12:03.374Z,1.03
2022-12-31T11:14:48.205Z,1.00
2022-12-31T11:17:23.670Z,1.03
2022-12-31T11:20:25.387Z,1.00
2022-12-31T11:23:14.087Z,1.10
2022-12-31T11:25:59.373Z,1.00
2022-12-31T11:28:54.136Z,1.23
2022-12-31T11:31:40.398Z,0.93
2022-12-31T11:34:25.698Z,0.90
2022-12-31T11:37:22.077Z,0.83
2022-12-31T11:39:57.451Z,1.43
2022-12-31T11:42:33.861Z,0.90
2022-12-31T11:45:26.724Z,0.80
2022-12-31T11:51:13.463Z,1.00
2022-12-31T11:53:49.033Z,1.00
2022-12-31T11:56:22.771Z,1.70
2022-12-31T11:58:53.811Z,1.03
2022-12-31T12:01:36.217Z,1.00
2022-12-31T12:04:03.654Z,1.17
2022-12-31T12:06:32.932Z,1.30
2022-12-31T12:09:03.186Z,1.00
2022-12-31T12:11:35.290Z,1.07
2022-12-31T12:14:18.013Z,0.83
2022-12-31T12:16:44.718Z,0.80
2022-12-31T12:19:18.670Z,0.93
2022-12-31T12:21:49.554Z,1.17
2022-12-31T12:24:27.218Z,1.00
2022-12-31T12:26:54.316Z,1.00
2022-12-31T12:29:24.033Z,1.40
2022-12-31T12:32:00.867Z,1.63
2022-12-31T12:34:29.028Z,0.90
2022-12-31T12:36:56.257Z,25.77
2022-12-31T12:39:26.520Z,6.10
2022-12-31T12:42:25.451Z,8.70
2022-12-31T12:45:23.151Z,1.10
2022-12-31T12:47:56.126Z,0.80
2022-12-31T12:50:26.529Z,1.10
2022-12-31T12:53:14.090Z,1.27
2022-12-31T12:55:59.066Z,1.10
2022-12-31T12:58:48.216Z,0.90
2022-12-31T13:01:14.957Z,1.07
2022-12-31T13:04:32.877Z,1.00
2022-12-31T13:07:07.625Z,0.77
2022-12-31T13:09:54.058Z,1.00
2022-12-31T13:13:13.683Z,1.00
2022-12-31T13:15:28.070Z,1.13
2022-12-31T13:18:06.023Z,1.10
2022-12-31T13:20:44.743Z,1.00
2022-12-31T13:23:28.773Z,0.90
2022-12-31T13:26:14.307Z,1.07
2022-12-31T13:28:43.395Z,1.20
2022-12-31T13:31:14.584Z,1.33
2022-12-31T13:33:50.275Z,0.90
2022-12-31T13:36:21.723Z,0.90
2022-12-31T13:38:53.378Z,1.00
2022-12-31T13:41:52.424Z,0.77
2022-12-31T13:44:39.391Z,0.97
2022-12-31T13:47:10.893Z,0.87
2022-12-31T13:49:46.362Z,1.27
2022-12-31T13:52:35.171Z,5.23
2022-12-31T13:55:26.766Z,0.90
2022-12-31T13:57:57.670Z,19.60
2022-12-31T14:00:29.977Z,10.20
2022-12-31T14:03:02.729Z,1.80
2022-12-31T14:05:42.109Z,1.00
2022-12-31T14:08:09.804Z,0.93
2022-12-31T14:10:41.316Z,1.73
2022-12-31T14:13:44.521Z,1.70
2022-12-31T14:16:18.198Z,2.30
2022-12-31T14:19:40.885Z,1.50
2022-12-31T14:22:22.173Z,1.20
2022-12-31T14:24:51.407Z,1.20
2022-12-31T14:27:31.037Z,0.90
2022-12-31T14:30:26.415Z,1.60
2022-12-31T14:33:11.946Z,1.57
2022-12-31T14:36:02.817Z,1.20
2022-12-31T14:39:01.258Z,1.33
2022-12-31T14:42:16.872Z,1.50
2022-12-31T14:45:18.353Z,1.20
2022-12-31T14:48:00.062Z,12.13
2022-12-31T14:50:29.824Z,1.60
2022-12-31T14:53:02.841Z,1.37
2022-12-31T14:55:35.958Z,1.70
2022-12-31T14:58:28.579Z,1.70
2022-12-31T15:01:01.800Z,1.17
2022-12-31T15:03:31.636Z,0.97
2022-12-31T15:06:18.011Z,0.93
2022-12-31T15:09:08.326Z,1.30
2022-12-31T15:12:03.038Z,1.80
2022-12-31T15:15:04.563Z,1.30
2022-12-31T15:18:02.688Z,1.23
2022-12-31T15:21:22.371Z,2.17
2022-12-31T15:23:49.814Z,2.00
2022-12-31T15:26:24.221Z,3.13
2022-12-31T15:29:43.313Z,3.20
2022-12-31T15:32:22.972Z,1.80
2022-12-31T15:35:25.300Z,1.70
2022-12-31T15:38:27.070Z,1.80
2022-12-31T15:40:53.952Z,2.70
2022-12-31T15:43:45.019Z,2.00
2022-12-31T15:46:19.656Z,1.90
2022-12-31T15:49:04.993Z,1.27
2022-12-31T15:51:49.480Z,0.70
2022-12-31T15:54:56.148Z,1.50
2022-12-31T15:57:39.090Z,0.93
2022-12-31T16:00:21.806Z,0.70
2022-12-31T16:02:52.978Z,1.37
2022-12-31T16:05:25.145Z,1.20
2022-12-31T16:07:55.487Z,1.40
2022-12-31T16:10:32.792Z,1.43
2022-12-31T16:13:00.305Z,1.40
2022-12-31T16:15:30.911Z,1.70
2022-12-31T16:18:05.139Z,1.67
2022-12-31T16:20:34.604Z,1.80
2022-12-31T16:23:03.396Z,1.70
2022-12-31T16:25:33.538Z,2.07
2022-12-31T16:28:03.357Z,2.83
2022-12-31T16:30:37.366Z,3.10
2022-12-31T16:33:09.930Z,2.20
2022-12-31T16:35:37.399Z,1.10
2022-12-31T16:38:18.886Z,1.30
2022-12-31T16:41:00.794Z,1.70
2022-12-31T16:43:43.192Z,1.97
2022-12-31T16:46:31.027Z,1.60
2022-12-31T16:49:15.429Z,1.63
2022-12-31T16:51:42.575Z,1.60
2022-12-31T16:54:31.387Z,4.17
2022-12-31T16:56:59.865Z,3.10
2022-12-31T16:59:38.808Z,2.10
2022-12-31T17:02:16.873Z,1.57
2022-12-31T17:04:55.656Z,1.57
2022-12-31T17:07:32.403Z,1.80
2022-12-31T17:10:21.014Z,1.20
2022-12-31T17:15:46.054Z,1.80
2022-12-31T17:18:22.826Z,1.77
2022-12-31T17:20:52.902Z,1.20
2022-12-31T17:23:31.702Z,1.13
2022-12-31T17:26:09.074Z,1.50
2022-12-31T17:28:47.648Z,0.90
2022-12-31T17:31:38.351Z,1.60
2022-12-31T17:34:12.945Z,1.90
2022-12-31T17:36:57.787Z,3.03
2022-12-31T17:39:26.522Z,1.73
2022-12-31T17:41:57.828Z,2.57
2022-12-31T17:44:28.456Z,3.00
2022-12-31T17:46:55.393Z,5.07
2022-12-31T17:49:30.533Z,6.43
2022-12-31T17:51:57.485Z,4.30
2022-12-31T17:54:24.282Z,2.40
2022-12-31T17:56:53.002Z,3.90
2022-12-31T17:59:24.499Z,3.17
2022-12-31T18:01:51.577Z,16.57
2022-12-31T18:04:20.672Z,5.27
2022-12-31T18:06:47.491Z,2.37
2022-12-31T18:09:15.897Z,3.23
2022-12-31T18:11:42.947Z,3.57
2022-12-31T18:14:15.167Z,4.00
2022-12-31T18:16:42.357Z,4.90
2022-12-31T18:19:45.624Z,1.70
2022-12-31T18:22:02.845Z,2.60
2022-12-31T18:24:29.653Z,1.53
2022-12-31T18:26:56.590Z,3.10
2022-12-31T18:29:23.434Z,2.67
2022-12-31T18:31:50.809Z,1.90
2022-12-31T18:34:18.874Z,2.90
2022-12-31T18:36:46.005Z,3.93
2022-12-31T18:39:12.901Z,2.70
2022-12-31T18:41:51.191Z,2.27
2022-12-31T18:44:18.116Z,3.30
2022-12-31T18:46:45.010Z,3.30
2022-12-31T18:49:12.235Z,3.37
2022-12-31T18:51:39.075Z,3.13
2022-12-31T18:54:10.938Z,3.70
2022-12-31T18:56:43.275Z,4.20
2022-12-31T18:59:13.563Z,3.50
2022-12-31T19:01:41.358Z,2.60
2022-12-31T19:04:26.592Z,4.20
2022-12-31T19:06:54.724Z,2.40
2022-12-31T19:09:44.561Z,3.87
2022-12-31T19:12:13.236Z,3.40
2022-12-31T19:14:40.136Z,4.80
2022-12-31T19:19:32.778Z,6.60
2022-12-31T19:21:59.626Z,2.50
2022-12-31T19:24:27.956Z,6.90
2022-12-31T19:26:55.037Z,5.03
2022-12-31T19:29:27.309Z,4.67
2022-12-31T19:31:54.463Z,4.00
2022-12-31T19:34:21.834Z,2.50
2022-12-31T19:36:48.681Z,3.90
2022-12-31T19:39:21.274Z,3.57
2022-12-31T19:41:54.698Z,3.30
2022-12-31T19:44:25.619Z,3.70
2022-12-31T19:46:52.437Z,3.60
2022-12-31T19:49:19.289Z,2.87
2022-12-31T19:51:46.182Z,3.03
2022-12-31T19:54:13.578Z,2.67
2022-12-31T19:56:40.775Z,2.30
2022-12-31T19:59:09.943Z,3.20
2022-12-31T20:01:37.095Z,2.90
2022-12-31T20:04:04.396Z,4.30
2022-12-31T20:06:31.337Z,3.70
2022-12-31T20:08:58.159Z,5.47
2022-12-31T20:11:25.519Z,5.73
2022-12-31T20:13:53.745Z,4.70
2022-12-31T20:16:24.493Z,3.60
2022-12-31T20:18:51.541Z,3.67
2022-12-31T20:21:25.434Z,4.40
2022-12-31T20:23:54.242Z,4.37
2022-12-31T20:26:23.675Z,5.20
2022-12-31T20:28:50.988Z,3.43
2022-12-31T20:31:22.438Z,5.80
2022-12-31T20:33:49.433Z,9.27
2022-12-31T20:36:17.493Z,5.20
2022-12-31T20:38:45.032Z,6.07
2022-12-31T20:41:18.705Z,6.43
2022-12-31T20:43:46.296Z,5.57
2022-12-31T20:46:18.841Z,6.07
2022-12-31T20:48:47.304Z,5.43
2022-12-31T20:51:16.045Z,4.90
2022-12-31T20:53:58.846Z,5.30
2022-12-31T20:56:28.777Z,4.97
2022-12-31T20:58:56.165Z,6.37
2022-12-31T21:01:23.440Z,5.80
2022-12-31T21:04:07.968Z,4.30
2022-12-31T21:06:35.978Z,4.53
2022-12-31T21:09:05.937Z,4.67
2022-12-31T21:11:51.608Z,3.40
2022-12-31T21:14:18.523Z,2.57
2022-12-31T21:16:45.357Z,2.97
2022-12-31T21:19:12.399Z,3.50
2022-12-31T21:21:39.256Z,4.53
2022-12-31T21:24:06.463Z,3.80
2022-12-31T21:26:34.295Z,2.80
2022-12-31T21:29:01.158Z,2.57
2022-12-31T21:31:28.075Z,1.57
2022-12-31T21:33:55.698Z,2.10
2022-12-31T21:36:22.599Z,2.10
2022-12-31T21:38:49.409Z,2.40
2022-12-31T21:41:35.397Z,2.70
2022-12-31T21:44:02.967Z,2.50
2022-12-31T21:46:30.128Z,2.47
2022-12-31T21:49:00.752Z,2.30
2022-12-31T21:51:28.611Z,2.57
2022-12-31T21:53:55.860Z,2.70
2022-12-31T21:56:22.838Z,2.97
2022-12-31T21:59:15.269Z,3.27
2022-12-31T22:02:01.352Z,3.37
2022-12-31T22:05:00.795Z,2.60
2022-12-31T22:07:15.986Z,3.67
2022-12-31T22:09:42.771Z,4.20
2022-12-31T22:12:09.637Z,7.40
2022-12-31T22:14:36.512Z,6.13
2022-12-31T22:17:03.368Z,6.63
2022-12-31T22:19:30.183Z,6.87
2022-12-31T22:21:56.996Z,6.90
2022-12-31T22:24:23.794Z,6.90
2022-12-31T22:26:52.069Z,9.50
2022-12-31T22:29:19.670Z,9.10
2022-12-31T22:31:46.588Z,10.30
2022-12-31T22:34:13.385Z,11.70
2022-12-31T22:36:40.556Z,11.57
2022-12-31T22:39:07.459Z,9.47
2022-12-31T22:41:34.880Z,8.63
2022-12-31T22:44:04.623Z,6.37
2022-12-31T22:46:33.020Z,5.20
2022-12-31T22:49:01.593Z,5.27
2022-12-31T22:51:57.758Z,8.00
2022-12-31T22:54:16.850Z,6.47
2022-12-31T22:56:43.676Z,23.20
2022-12-31T22:59:10.935Z,33.47
2022-12-31T23:01:38.027Z,39.17
2022-12-31T23:04:05.589Z,51.30
2022-12-31T23:06:32.805Z,288.93
2022-12-31T23:09:18.070Z,125.33
2022-12-31T23:11:44.900Z,159.00
2022-12-31T23:14:35.593Z,238.87
2022-12-31T23:17:31.452Z,230.00
2022-12-31T23:20:20.792Z,226.57
2022-12-31T23:23:26.599Z,115.67
2022-12-31T23:25:53.500Z,115.63
2022-12-31T23:28:25.437Z,168.30
2022-12-31T23:30:52.787Z,118.73
2022-12-31T23:33:24.181Z,110.00
2022-12-31T23:35:51.420Z,106.07
2022-12-31T23:38:18.871Z,84.20
2022-12-31T23:40:45.800Z,142.13
2022-12-31T23:43:21.925Z,81.13
2022-12-31T23:45:52.626Z,82.67
2022-12-31T23:48:19.991Z,74.47
2022-12-31T23:50:53.409Z,73.97
2022-12-31T23:53:22.680Z,50.87
2022-12-31T23:55:49.803Z,52.53
2022-12-31T23:58:16.696Z,52.63
